sensor_id;sensor_type;location;lat;lon;timestamp;pressure;altitude;pressure_sealevel;temperature;humidity
32067;BME280;18573;47.890;35.066;2023-07-13T00:02:14;100514.17;;;24.24;42.34
32067;BME280;18573;47.890;35.066;2023-07-13T00:04:44;100514.17;;;24.24;42.34
32067;BME280;18573;47.890;35.066;2023-07-13T00:07:13;100520.23;;;24.21;41.87
32067;BME280;18573;47.890;35.066;2023-07-13T00:09:42;100518.52;;;24.25;41.50
32067;BME280;18573;47.890;35.066;2023-07-13T00:12:23;100519.75;;;24.19;41.73
32067;BME280;18573;47.890;35.066;2023-07-13T00:14:52;100523.50;;;24.23;41.31
32067;BME280;18573;47.890;35.066;2023-07-13T00:17:22;100523.50;;;24.23;41.31
32067;BME280;18573;47.890;35.066;2023-07-13T00:19:51;100523.95;;;24.28;41.28
32067;BME280;18573;47.890;35.066;2023-07-13T00:22:21;100527.53;;;24.26;41.34
32067;BME280;18573;47.890;35.066;2023-07-13T00:24:54;100527.49;;;24.29;41.51
32067;BME280;18573;47.890;35.066;2023-07-13T00:27:26;100527.49;;;24.29;41.51
32067;BME280;18573;47.890;35.066;2023-07-13T00:29:58;100522.63;;;24.25;41.73
32067;BME280;18573;47.890;35.066;2023-07-13T00:32:27;100526.13;;;24.29;41.47
32067;BME280;18573;47.890;35.066;2023-07-13T00:34:58;100526.13;;;24.29;41.47
32067;BME280;18573;47.890;35.066;2023-07-13T00:37:28;100529.45;;;24.25;41.86
32067;BME280;18573;47.890;35.066;2023-07-13T00:39:59;100531.03;;;24.29;41.86
32067;BME280;18573;47.890;35.066;2023-07-13T00:42:28;100531.97;;;24.22;42.09
32067;BME280;18573;47.890;35.066;2023-07-13T00:47:44;100521.56;;;24.24;42.48
32067;BME280;18573;47.890;35.066;2023-07-13T00:50:16;100523.63;;;24.16;41.96
32067;BME280;18573;47.890;35.066;2023-07-13T00:52:49;100523.63;;;24.16;41.96
32067;BME280;18573;47.890;35.066;2023-07-13T00:55:19;100534.46;;;24.21;42.83
32067;BME280;18573;47.890;35.066;2023-07-13T00:57:50;100534.46;;;24.21;42.83
32067;BME280;18573;47.890;35.066;2023-07-13T01:00:20;100529.20;;;24.11;42.62
32067;BME280;18573;47.890;35.066;2023-07-13T01:02:50;100520.92;;;23.99;42.95
32067;BME280;18573;47.890;35.066;2023-07-13T01:05:23;100528.06;;;23.98;43.02
32067;BME280;18573;47.890;35.066;2023-07-13T01:07:52;100526.95;;;23.99;42.76
32067;BME280;18573;47.890;35.066;2023-07-13T01:10:23;100533.95;;;24.05;42.00
32067;BME280;18573;47.890;35.066;2023-07-13T01:12:52;100533.95;;;24.05;42.00
32067;BME280;18573;47.890;35.066;2023-07-13T01:15:40;100533.68;;;24.04;42.00
32067;BME280;18573;47.890;35.066;2023-07-13T01:18:21;100546.59;;;24.01;42.21
32067;BME280;18573;47.890;35.066;2023-07-13T01:20:56;100550.97;;;23.99;42.95
32067;BME280;18573;47.890;35.066;2023-07-13T01:23:27;100550.97;;;23.99;42.95
32067;BME280;18573;47.890;35.066;2023-07-13T01:25:58;100555.37;;;23.98;43.04
32067;BME280;18573;47.890;35.066;2023-07-13T01:28:28;100564.94;;;23.98;42.77
32067;BME280;18573;47.890;35.066;2023-07-13T01:30:59;100564.94;;;23.98;42.77
32067;BME280;18573;47.890;35.066;2023-07-13T01:33:28;100560.59;;;23.97;42.68
32067;BME280;18573;47.890;35.066;2023-07-13T01:35:57;100560.59;;;23.97;42.68
32067;BME280;18573;47.890;35.066;2023-07-13T01:38:26;100559.61;;;23.90;43.08
32067;BME280;18573;47.890;35.066;2023-07-13T01:40:56;100559.61;;;23.90;43.08
32067;BME280;18573;47.890;35.066;2023-07-13T01:43:25;100563.42;;;23.92;42.87
32067;BME280;18573;47.890;35.066;2023-07-13T01:45:54;100566.77;;;23.86;43.27
32067;BME280;18573;47.890;35.066;2023-07-13T01:48:25;100566.77;;;23.86;43.27
32067;BME280;18573;47.890;35.066;2023-07-13T01:50:54;100568.79;;;23.81;42.33
32067;BME280;18573;47.890;35.066;2023-07-13T01:53:23;100576.64;;;23.85;42.20
32067;BME280;18573;47.890;35.066;2023-07-13T01:55:52;100576.64;;;23.85;42.17
32067;BME280;18573;47.890;35.066;2023-07-13T01:58:21;100576.64;;;23.85;42.17
32067;BME280;18573;47.890;35.066;2023-07-13T02:00:51;100574.47;;;23.84;42.10
32067;BME280;18573;47.890;35.066;2023-07-13T02:03:21;100576.33;;;23.86;42.33
32067;BME280;18573;47.890;35.066;2023-07-13T02:05:50;100586.54;;;23.81;42.79
32067;BME280;18573;47.890;35.066;2023-07-13T02:08:19;100586.54;;;23.81;42.79
32067;BME280;18573;47.890;35.066;2023-07-13T02:10:48;100577.64;;;23.56;43.97
32067;BME280;18573;47.890;35.066;2023-07-13T02:13:18;100583.46;;;23.49;43.70
32067;BME280;18573;47.890;35.066;2023-07-13T02:15:52;100580.92;;;23.56;43.91
32067;BME280;18573;47.890;35.066;2023-07-13T02:18:21;100580.92;;;23.56;43.91
32067;BME280;18573;47.890;35.066;2023-07-13T02:20:50;100581.65;;;23.61;44.14
32067;BME280;18573;47.890;35.066;2023-07-13T02:23:19;100581.65;;;23.61;44.14
32067;BME280;18573;47.890;35.066;2023-07-13T02:25:48;100588.08;;;23.70;42.84
32067;BME280;18573;47.890;35.066;2023-07-13T02:28:18;100588.08;;;23.70;42.84
32067;BME280;18573;47.890;35.066;2023-07-13T02:30:47;100585.58;;;23.74;43.23
32067;BME280;18573;47.890;35.066;2023-07-13T02:33:16;100583.25;;;23.81;43.14
32067;BME280;18573;47.890;35.066;2023-07-13T02:35:46;100586.67;;;24.06;42.77
32067;BME280;18573;47.890;35.066;2023-07-13T02:38:15;100580.89;;;24.07;42.70
32067;BME280;18573;47.890;35.066;2023-07-13T02:40:45;100587.78;;;24.05;43.70
32067;BME280;18573;47.890;35.066;2023-07-13T02:43:15;100586.11;;;23.90;44.09
32067;BME280;18573;47.890;35.066;2023-07-13T02:45:44;100589.40;;;23.89;43.65
32067;BME280;18573;47.890;35.066;2023-07-13T02:48:14;100598.96;;;24.06;43.23
32067;BME280;18573;47.890;35.066;2023-07-13T02:50:45;100585.61;;;24.18;43.02
32067;BME280;18573;47.890;35.066;2023-07-13T02:53:14;100585.94;;;24.30;42.70
32067;BME280;18573;47.890;35.066;2023-07-13T02:55:43;100591.44;;;24.44;42.55
32067;BME280;18573;47.890;35.066;2023-07-13T02:58:14;100590.64;;;24.57;42.73
32067;BME280;18573;47.890;35.066;2023-07-13T03:00:46;100590.64;;;24.57;42.73
32067;BME280;18573;47.890;35.066;2023-07-13T03:03:15;100593.83;;;24.62;42.61
32067;BME280;18573;47.890;35.066;2023-07-13T03:05:45;100589.91;;;24.93;41.45
32067;BME280;18573;47.890;35.066;2023-07-13T03:08:16;100602.26;;;25.18;41.42
32067;BME280;18573;47.890;35.066;2023-07-13T03:10:46;100598.48;;;25.39;40.26
32067;BME280;18573;47.890;35.066;2023-07-13T03:13:15;100598.48;;;25.39;40.26
32067;BME280;18573;47.890;35.066;2023-07-13T03:15:48;100597.64;;;25.63;39.90
32067;BME280;18573;47.890;35.066;2023-07-13T03:18:15;100599.02;;;26.08;38.95
32067;BME280;18573;47.890;35.066;2023-07-13T03:20:44;100595.98;;;25.98;38.97
32067;BME280;18573;47.890;35.066;2023-07-13T03:23:13;100595.98;;;25.98;38.97
32067;BME280;18573;47.890;35.066;2023-07-13T03:25:42;100597.66;;;26.28;38.80
32067;BME280;18573;47.890;35.066;2023-07-13T03:28:12;100597.66;;;26.28;38.80
32067;BME280;18573;47.890;35.066;2023-07-13T03:30:42;100604.56;;;26.57;38.12
32067;BME280;18573;47.890;35.066;2023-07-13T03:33:11;100604.56;;;26.57;38.12
32067;BME280;18573;47.890;35.066;2023-07-13T03:35:41;100617.66;;;26.80;37.06
32067;BME280;18573;47.890;35.066;2023-07-13T03:38:10;100625.49;;;26.92;36.90
32067;BME280;18573;47.890;35.066;2023-07-13T03:40:39;100619.47;;;26.93;36.97
32067;BME280;18573;47.890;35.066;2023-07-13T03:43:09;100619.47;;;26.93;36.97
32067;BME280;18573;47.890;35.066;2023-07-13T03:45:40;100622.04;;;27.26;36.48
32067;BME280;18573;47.890;35.066;2023-07-13T03:48:10;100622.04;;;27.26;36.48
32067;BME280;18573;47.890;35.066;2023-07-13T03:50:39;100627.53;;;27.26;36.34
32067;BME280;18573;47.890;35.066;2023-07-13T03:53:10;100624.41;;;27.48;36.28
32067;BME280;18573;47.890;35.066;2023-07-13T03:55:39;100624.41;;;27.48;36.28
32067;BME280;18573;47.890;35.066;2023-07-13T03:58:34;100631.73;;;27.67;35.86
32067;BME280;18573;47.890;35.066;2023-07-13T04:01:06;100637.16;;;27.53;36.17
32067;BME280;18573;47.890;35.066;2023-07-13T04:03:36;100641.19;;;27.55;36.46
32067;BME280;18573;47.890;35.066;2023-07-13T04:06:07;100641.19;;;27.55;36.46
32067;BME280;18573;47.890;35.066;2023-07-13T04:08:38;100648.91;;;28.14;35.79
32067;BME280;18573;47.890;35.066;2023-07-13T04:11:07;100648.91;;;28.14;35.79
32067;BME280;18573;47.890;35.066;2023-07-13T04:13:37;100654.78;;;28.27;36.22
32067;BME280;18573;47.890;35.066;2023-07-13T04:16:07;100656.55;;;27.99;37.00
32067;BME280;18573;47.890;35.066;2023-07-13T04:18:36;100656.55;;;27.99;37.00
32067;BME280;18573;47.890;35.066;2023-07-13T04:21:06;100664.27;;;27.74;38.25
32067;BME280;18573;47.890;35.066;2023-07-13T04:23:36;100664.27;;;27.74;38.25
32067;BME280;18573;47.890;35.066;2023-07-13T04:26:06;100657.37;;;27.65;39.04
32067;BME280;18573;47.890;35.066;2023-07-13T04:28:36;100653.52;;;27.75;38.87
32067;BME280;18573;47.890;35.066;2023-07-13T04:31:05;100647.91;;;27.86;38.81
32067;BME280;18573;47.890;35.066;2023-07-13T04:33:34;100638.64;;;28.17;38.32
32067;BME280;18573;47.890;35.066;2023-07-13T04:36:05;100639.53;;;28.23;38.46
32067;BME280;18573;47.890;35.066;2023-07-13T04:38:36;100639.53;;;28.23;38.46
32067;BME280;18573;47.890;35.066;2023-07-13T04:41:07;100645.09;;;28.38;38.16
32067;BME280;18573;47.890;35.066;2023-07-13T04:43:37;100641.70;;;28.56;37.96
32067;BME280;18573;47.890;35.066;2023-07-13T04:46:08;100646.38;;;28.64;37.96
32067;BME280;18573;47.890;35.066;2023-07-13T04:48:39;100643.85;;;28.80;37.65
32067;BME280;18573;47.890;35.066;2023-07-13T04:51:10;100646.58;;;29.04;37.66
32067;BME280;18573;47.890;35.066;2023-07-13T04:53:39;100646.58;;;29.04;37.66
32067;BME280;18573;47.890;35.066;2023-07-13T04:56:08;100640.41;;;29.07;37.40
32067;BME280;18573;47.890;35.066;2023-07-13T04:58:38;100640.41;;;29.07;37.40
32067;BME280;18573;47.890;35.066;2023-07-13T05:01:09;100644.86;;;29.20;37.07
32067;BME280;18573;47.890;35.066;2023-07-13T05:03:39;100644.86;;;29.20;37.07
32067;BME280;18573;47.890;35.066;2023-07-13T05:06:08;100640.16;;;29.20;36.57
32067;BME280;18573;47.890;35.066;2023-07-13T05:08:41;100642.05;;;29.29;37.08
32067;BME280;18573;47.890;35.066;2023-07-13T05:11:11;100643.97;;;29.43;36.70
32067;BME280;18573;47.890;35.066;2023-07-13T05:13:41;100643.97;;;29.43;36.70
32067;BME280;18573;47.890;35.066;2023-07-13T05:16:10;100638.25;;;29.48;37.93
32067;BME280;18573;47.890;35.066;2023-07-13T05:18:39;100642.94;;;29.62;37.03
32067;BME280;18573;47.890;35.066;2023-07-13T05:21:11;100642.94;;;29.62;37.03
32067;BME280;18573;47.890;35.066;2023-07-13T05:23:41;100644.52;;;29.78;37.12
32067;BME280;18573;47.890;35.066;2023-07-13T05:26:10;100635.67;;;29.85;37.96
32067;BME280;18573;47.890;35.066;2023-07-13T05:28:40;100635.67;;;29.85;37.96
32067;BME280;18573;47.890;35.066;2023-07-13T05:31:10;100637.98;;;29.83;38.85
32067;BME280;18573;47.890;35.066;2023-07-13T05:33:40;100640.91;;;29.71;38.73
32067;BME280;18573;47.890;35.066;2023-07-13T05:36:10;100641.69;;;29.93;39.41
32067;BME280;18573;47.890;35.066;2023-07-13T05:38:39;100646.77;;;30.03;36.91
32067;BME280;18573;47.890;35.066;2023-07-13T05:41:08;100643.33;;;30.00;37.10
32067;BME280;18573;47.890;35.066;2023-07-13T05:43:38;100647.13;;;30.08;38.82
32067;BME280;18573;47.890;35.066;2023-07-13T05:46:07;100645.72;;;30.22;38.40
32067;BME280;18573;47.890;35.066;2023-07-13T05:48:36;100650.91;;;30.36;38.50
32067;BME280;18573;47.890;35.066;2023-07-13T05:51:05;100637.92;;;30.31;39.03
32067;BME280;18573;47.890;35.066;2023-07-13T05:53:35;100637.92;;;30.31;39.03
32067;BME280;18573;47.890;35.066;2023-07-13T05:56:04;100645.81;;;30.20;41.43
32067;BME280;18573;47.890;35.066;2023-07-13T05:58:34;100645.81;;;30.20;41.43
32067;BME280;18573;47.890;35.066;2023-07-13T06:01:05;100645.98;;;30.36;38.10
32067;BME280;18573;47.890;35.066;2023-07-13T06:03:35;100651.27;;;30.47;39.27
32067;BME280;18573;47.890;35.066;2023-07-13T06:06:07;100651.27;;;30.47;39.27
32067;BME280;18573;47.890;35.066;2023-07-13T06:08:37;100654.00;;;30.35;39.21
32067;BME280;18573;47.890;35.066;2023-07-13T06:11:20;100654.00;;;30.35;39.21
32067;BME280;18573;47.890;35.066;2023-07-13T06:13:50;100648.16;;;30.36;39.09
32067;BME280;18573;47.890;35.066;2023-07-13T06:16:19;100642.03;;;30.24;39.34
32067;BME280;18573;47.890;35.066;2023-07-13T06:18:49;100641.23;;;30.30;38.24
32067;BME280;18573;47.890;35.066;2023-07-13T06:21:21;100636.57;;;30.10;42.18
32067;BME280;18573;47.890;35.066;2023-07-13T06:23:52;100638.75;;;30.10;38.20
32067;BME280;18573;47.890;35.066;2023-07-13T06:26:21;100638.75;;;30.10;38.20
32067;BME280;18573;47.890;35.066;2023-07-13T06:28:50;100654.83;;;30.35;38.50
32067;BME280;18573;47.890;35.066;2023-07-13T06:31:20;100654.83;;;30.35;38.50
32067;BME280;18573;47.890;35.066;2023-07-13T06:33:49;100651.81;;;30.28;37.17
32067;BME280;18573;47.890;35.066;2023-07-13T06:36:18;100650.81;;;30.51;36.82
32067;BME280;18573;47.890;35.066;2023-07-13T06:38:48;100652.09;;;30.54;37.54
32067;BME280;18573;47.890;35.066;2023-07-13T06:41:17;100652.09;;;30.54;37.54
32067;BME280;18573;47.890;35.066;2023-07-13T06:43:47;100659.45;;;30.49;34.80
32067;BME280;18573;47.890;35.066;2023-07-13T06:46:16;100659.45;;;30.49;34.80
32067;BME280;18573;47.890;35.066;2023-07-13T06:48:45;100658.39;;;30.42;34.48
32067;BME280;18573;47.890;35.066;2023-07-13T06:51:14;100658.39;;;30.42;34.48
32067;BME280;18573;47.890;35.066;2023-07-13T06:53:43;100657.27;;;30.49;36.39
32067;BME280;18573;47.890;35.066;2023-07-13T06:56:12;100657.27;;;30.49;36.39
32067;BME280;18573;47.890;35.066;2023-07-13T06:58:42;100659.67;;;30.44;35.43
32067;BME280;18573;47.890;35.066;2023-07-13T07:01:11;100658.64;;;30.55;35.34
32067;BME280;18573;47.890;35.066;2023-07-13T07:03:41;100658.64;;;30.55;35.34
32067;BME280;18573;47.890;35.066;2023-07-13T07:06:19;100649.78;;;30.56;34.89
32067;BME280;18573;47.890;35.066;2023-07-13T07:08:50;100661.65;;;30.62;35.08
32067;BME280;18573;47.890;35.066;2023-07-13T07:11:22;100659.19;;;30.42;35.08
32067;BME280;18573;47.890;35.066;2023-07-13T07:13:52;100643.22;;;30.42;34.57
32067;BME280;18573;47.890;35.066;2023-07-13T07:16:24;100650.14;;;30.54;34.33
32067;BME280;18573;47.890;35.066;2023-07-13T07:18:53;100647.14;;;30.65;32.96
32067;BME280;18573;47.890;35.066;2023-07-13T07:21:22;100647.14;;;30.65;32.96
32067;BME280;18573;47.890;35.066;2023-07-13T07:23:52;100640.80;;;30.52;31.91
32067;BME280;18573;47.890;35.066;2023-07-13T07:26:21;100640.80;;;30.52;31.91
32067;BME280;18573;47.890;35.066;2023-07-13T07:28:51;100643.45;;;30.55;31.29
32067;BME280;18573;47.890;35.066;2023-07-13T07:31:23;100630.22;;;30.36;33.11
32067;BME280;18573;47.890;35.066;2023-07-13T07:33:54;100630.22;;;30.36;33.11
32067;BME280;18573;47.890;35.066;2023-07-13T07:36:23;100630.23;;;30.55;32.83
32067;BME280;18573;47.890;35.066;2023-07-13T07:38:53;100630.23;;;30.55;32.83
32067;BME280;18573;47.890;35.066;2023-07-13T07:41:23;100625.41;;;30.12;30.87
32067;BME280;18573;47.890;35.066;2023-07-13T07:43:54;100611.20;;;29.77;30.98
32067;BME280;18573;47.890;35.066;2023-07-13T07:46:23;100611.20;;;29.77;30.98
32067;BME280;18573;47.890;35.066;2023-07-13T07:48:52;100616.41;;;29.22;32.01
32067;BME280;18573;47.890;35.066;2023-07-13T07:51:23;100626.35;;;29.35;31.76
32067;BME280;18573;47.890;35.066;2023-07-13T07:53:53;100626.00;;;29.72;33.04
32067;BME280;18573;47.890;35.066;2023-07-13T07:56:23;100626.00;;;29.72;33.04
32067;BME280;18573;47.890;35.066;2023-07-13T07:58:54;100625.02;;;29.62;32.32
32067;BME280;18573;47.890;35.066;2023-07-13T08:01:25;100630.42;;;29.59;32.19
32067;BME280;18573;47.890;35.066;2023-07-13T08:03:56;100619.44;;;29.71;31.74
32067;BME280;18573;47.890;35.066;2023-07-13T08:06:27;100619.44;;;29.71;31.74
32067;BME280;18573;47.890;35.066;2023-07-13T08:08:59;100610.58;;;29.65;31.84
32067;BME280;18573;47.890;35.066;2023-07-13T08:11:29;100610.30;;;29.58;31.13
32067;BME280;18573;47.890;35.066;2023-07-13T08:14:00;100614.39;;;29.52;31.14
32067;BME280;18573;47.890;35.066;2023-07-13T08:16:29;100614.39;;;29.52;31.14
32067;BME280;18573;47.890;35.066;2023-07-13T08:19:00;100617.12;;;29.67;32.03
32067;BME280;18573;47.890;35.066;2023-07-13T08:21:29;100621.88;;;29.79;31.93
32067;BME280;18573;47.890;35.066;2023-07-13T08:23:58;100617.35;;;29.47;32.62
32067;BME280;18573;47.890;35.066;2023-07-13T08:26:28;100624.91;;;29.44;32.74
32067;BME280;18573;47.890;35.066;2023-07-13T08:28:57;100624.91;;;29.44;32.74
32067;BME280;18573;47.890;35.066;2023-07-13T08:31:26;100627.45;;;29.91;30.53
32067;BME280;18573;47.890;35.066;2023-07-13T08:33:56;100627.45;;;29.91;30.53
32067;BME280;18573;47.890;35.066;2023-07-13T08:36:26;100622.31;;;29.68;30.72
32067;BME280;18573;47.890;35.066;2023-07-13T08:38:55;100626.08;;;29.64;30.94
32067;BME280;18573;47.890;35.066;2023-07-13T08:41:24;100630.67;;;29.66;31.21
32067;BME280;18573;47.890;35.066;2023-07-13T08:43:57;100628.42;;;29.80;30.98
32067;BME280;18573;47.890;35.066;2023-07-13T08:49:14;100635.02;;;29.88;31.71
32067;BME280;18573;47.890;35.066;2023-07-13T08:51:49;100639.86;;;29.91;31.64
32067;BME280;18573;47.890;35.066;2023-07-13T08:54:25;100644.30;;;30.16;31.79
32067;BME280;18573;47.890;35.066;2023-07-13T08:56:54;100644.30;;;30.16;31.79
32067;BME280;18573;47.890;35.066;2023-07-13T08:59:27;100645.37;;;30.24;31.16
32067;BME280;18573;47.890;35.066;2023-07-13T09:05:05;100633.73;;;29.58;32.96
32067;BME280;18573;47.890;35.066;2023-07-13T09:10:45;100636.47;;;29.79;32.14
32067;BME280;18573;47.890;35.066;2023-07-13T09:15:49;100633.11;;;29.52;32.16
32067;BME280;18573;47.890;35.066;2023-07-13T09:18:25;100633.58;;;29.75;32.49
32067;BME280;18573;47.890;35.066;2023-07-13T09:21:15;100633.58;;;29.75;32.49
32067;BME280;18573;47.890;35.066;2023-07-13T09:23:47;100637.26;;;29.73;32.71
32067;BME280;18573;47.890;35.066;2023-07-13T09:26:23;100633.34;;;29.68;32.66
32067;BME280;18573;47.890;35.066;2023-07-13T09:28:54;100633.34;;;29.68;32.66
32067;BME280;18573;47.890;35.066;2023-07-13T09:31:35;100629.00;;;29.17;33.58
32067;BME280;18573;47.890;35.066;2023-07-13T09:34:09;100637.53;;;29.45;33.38
32067;BME280;18573;47.890;35.066;2023-07-13T09:36:37;100632.34;;;29.37;33.47
32067;BME280;18573;47.890;35.066;2023-07-13T09:39:19;100644.58;;;29.28;33.62
32067;BME280;18573;47.890;35.066;2023-07-13T09:42:15;100636.03;;;29.20;34.46
32067;BME280;18573;47.890;35.066;2023-07-13T09:44:53;100635.39;;;29.30;33.09
32067;BME280;18573;47.890;35.066;2023-07-13T09:47:29;100635.39;;;29.30;33.09
32067;BME280;18573;47.890;35.066;2023-07-13T09:50:15;100626.06;;;28.92;34.19
32067;BME280;18573;47.890;35.066;2023-07-13T09:52:44;100626.06;;;28.92;34.19
32067;BME280;18573;47.890;35.066;2023-07-13T09:55:34;100623.93;;;28.83;34.39
32067;BME280;18573;47.890;35.066;2023-07-13T09:58:21;100618.20;;;28.97;34.17
32067;BME280;18573;47.890;35.066;2023-07-13T10:00:57;100623.83;;;28.56;34.74
32067;BME280;18573;47.890;35.066;2023-07-13T10:03:28;100617.47;;;28.41;36.06
32067;BME280;18573;47.890;35.066;2023-07-13T10:06:19;100617.47;;;28.41;36.06
32067;BME280;18573;47.890;35.066;2023-07-13T10:08:50;100620.69;;;28.66;36.03
32067;BME280;18573;47.890;35.066;2023-07-13T10:11:28;100609.79;;;28.79;35.28
32067;BME280;18573;47.890;35.066;2023-07-13T10:14:00;100601.62;;;28.46;35.21
32067;BME280;18573;47.890;35.066;2023-07-13T10:16:32;100601.62;;;28.46;35.21
32067;BME280;18573;47.890;35.066;2023-07-13T10:19:11;100597.22;;;28.69;35.53
32067;BME280;18573;47.890;35.066;2023-07-13T10:21:49;100590.41;;;28.81;35.40
32067;BME280;18573;47.890;35.066;2023-07-13T10:24:17;100589.66;;;28.72;36.61
32067;BME280;18573;47.890;35.066;2023-07-13T10:27:03;100582.69;;;28.74;35.69
32067;BME280;18573;47.890;35.066;2023-07-13T10:29:46;100579.50;;;28.49;37.14
32067;BME280;18573;47.890;35.066;2023-07-13T10:32:12;100573.08;;;28.27;38.00
32067;BME280;18573;47.890;35.066;2023-07-13T10:34:44;100579.50;;;28.49;37.08
32067;BME280;18573;47.890;35.066;2023-07-13T10:37:24;100563.22;;;28.50;36.86
32067;BME280;18573;47.890;35.066;2023-07-13T10:39:56;100568.83;;;28.47;36.99
32067;BME280;18573;47.890;35.066;2023-07-13T10:42:35;100563.18;;;28.44;37.46
32067;BME280;18573;47.890;35.066;2023-07-13T10:45:15;100563.18;;;28.44;37.46
32067;BME280;18573;47.890;35.066;2023-07-13T10:47:43;100557.76;;;28.41;37.23
32067;BME280;18573;47.890;35.066;2023-07-13T10:50:19;100569.59;;;28.42;37.25
32067;BME280;18573;47.890;35.066;2023-07-13T10:52:50;100571.29;;;28.32;37.39
32067;BME280;18573;47.890;35.066;2023-07-13T10:58:23;100562.65;;;28.36;37.32
32067;BME280;18573;47.890;35.066;2023-07-13T11:11:48;100549.70;;;28.36;37.87
32067;BME280;18573;47.890;35.066;2023-07-13T11:14:43;100549.70;;;28.36;37.87
32067;BME280;18573;47.890;35.066;2023-07-13T11:17:46;100541.79;;;28.35;37.68
32067;BME280;18573;47.890;35.066;2023-07-13T11:25:30;100549.05;;;28.31;37.83
32067;BME280;18573;47.890;35.066;2023-07-13T11:30:39;100542.41;;;28.32;37.70
32067;BME280;18573;47.890;35.066;2023-07-13T11:33:20;100533.59;;;28.32;37.36
32067;BME280;18573;47.890;35.066;2023-07-13T11:36:05;100533.59;;;28.32;37.36
32067;BME280;18573;47.890;35.066;2023-07-13T11:38:51;100539.58;;;28.34;37.80
32067;BME280;18573;47.890;35.066;2023-07-13T11:41:28;100533.05;;;28.33;37.91
32067;BME280;18573;47.890;35.066;2023-07-13T11:44:02;100533.05;;;28.33;37.91
32067;BME280;18573;47.890;35.066;2023-07-13T11:46:27;100535.08;;;28.30;37.90
32067;BME280;18573;47.890;35.066;2023-07-13T11:48:57;100533.78;;;28.27;37.97
32067;BME280;18573;47.890;35.066;2023-07-13T11:51:29;100521.36;;;28.21;37.69
32067;BME280;18573;47.890;35.066;2023-07-13T11:54:30;100514.06;;;28.25;38.36
32067;BME280;18573;47.890;35.066;2023-07-13T11:56:38;100514.06;;;28.25;38.36
32067;BME280;18573;47.890;35.066;2023-07-13T11:59:10;100514.64;;;28.24;38.15
32067;BME280;18573;47.890;35.066;2023-07-13T12:01:49;100521.17;;;28.26;38.38
32067;BME280;18573;47.890;35.066;2023-07-13T12:04:29;100517.16;;;28.23;38.18
32067;BME280;18573;47.890;35.066;2023-07-13T12:07:03;100518.84;;;28.22;38.61
32067;BME280;18573;47.890;35.066;2023-07-13T12:09:29;100515.37;;;28.19;38.29
32067;BME280;18573;47.890;35.066;2023-07-13T12:11:58;100505.52;;;28.18;38.26
32067;BME280;18573;47.890;35.066;2023-07-13T12:14:33;100500.92;;;28.16;38.86
32067;BME280;18573;47.890;35.066;2023-07-13T12:17:19;100495.58;;;28.19;38.64
32067;BME280;18573;47.890;35.066;2023-07-13T12:19:48;100489.73;;;28.21;38.83
32067;BME280;18573;47.890;35.066;2023-07-13T12:22:20;100489.73;;;28.21;38.83
32067;BME280;18573;47.890;35.066;2023-07-13T12:24:51;100480.53;;;28.17;38.67
32067;BME280;18573;47.890;35.066;2023-07-13T12:27:26;100473.32;;;28.18;38.70
32067;BME280;18573;47.890;35.066;2023-07-13T12:30:01;100467.36;;;28.16;38.73
32067;BME280;18573;47.890;35.066;2023-07-13T12:32:31;100460.20;;;28.24;38.76
32067;BME280;18573;47.890;35.066;2023-07-13T12:35:15;100460.20;;;28.24;38.76
32067;BME280;18573;47.890;35.066;2023-07-13T12:37:49;100457.44;;;28.09;39.00
32067;BME280;18573;47.890;35.066;2023-07-13T12:40:21;100454.97;;;28.31;37.06
32067;BME280;18573;47.890;35.066;2023-07-13T12:42:53;100454.97;;;28.31;37.06
32067;BME280;18573;47.890;35.066;2023-07-13T12:45:25;100460.31;;;28.51;36.28
32067;BME280;18573;47.890;35.066;2023-07-13T12:48:02;100460.31;;;28.51;36.28
32067;BME280;18573;47.890;35.066;2023-07-13T12:50:36;100455.18;;;28.41;36.52
32067;BME280;18573;47.890;35.066;2023-07-13T12:53:03;100445.18;;;28.36;36.95
32067;BME280;18573;47.890;35.066;2023-07-13T12:55:49;100446.50;;;28.45;36.39
32067;BME280;18573;47.890;35.066;2023-07-13T12:58:26;100446.50;;;28.45;36.39
32067;BME280;18573;47.890;35.066;2023-07-13T13:00:56;100449.34;;;28.57;35.87
32067;BME280;18573;47.890;35.066;2023-07-13T13:03:36;100447.04;;;28.59;35.09
32067;BME280;18573;47.890;35.066;2023-07-13T13:08:49;100444.41;;;28.57;35.79
32067;BME280;18573;47.890;35.066;2023-07-13T13:11:21;100444.61;;;28.51;35.67
32067;BME280;18573;47.890;35.066;2023-07-13T13:13:51;100444.61;;;28.51;35.67
32067;BME280;18573;47.890;35.066;2023-07-13T13:16:31;100451.26;;;28.50;35.90
32067;BME280;18573;47.890;35.066;2023-07-13T13:19:24;100449.56;;;28.58;35.75
32067;BME280;18573;47.890;35.066;2023-07-13T13:21:55;100446.17;;;28.67;35.14
32067;BME280;18573;47.890;35.066;2023-07-13T13:24:27;100442.05;;;28.67;35.28
32067;BME280;18573;47.890;35.066;2023-07-13T13:26:57;100443.92;;;28.55;36.29
32067;BME280;18573;47.890;35.066;2023-07-13T13:29:26;100443.92;;;28.55;36.29
32067;BME280;18573;47.890;35.066;2023-07-13T13:31:56;100437.18;;;28.58;36.50
32067;BME280;18573;47.890;35.066;2023-07-13T13:34:25;100432.27;;;28.64;35.40
32067;BME280;18573;47.890;35.066;2023-07-13T13:36:55;100433.11;;;28.64;35.78
32067;BME280;18573;47.890;35.066;2023-07-13T13:39:36;100433.11;;;28.64;35.78
32067;BME280;18573;47.890;35.066;2023-07-13T13:42:00;100436.34;;;28.72;35.28
32067;BME280;18573;47.890;35.066;2023-07-13T13:44:29;100430.47;;;28.68;35.38